Scroll down
FLIGHT INFORMATION
Federal Express (FedEx)

FDX9845

At Arrival Gate

KBOS
 KMEM
DATE: 2022-05-10
GATE: G70
GATE DEPARTURE: 11:51
TAKEOFF: 11:59
DATE: 2022-05-10
GATE:  -
LANDING: 14:19
GATE ARRIVAL: 14:27
FLIGHT DATA
Crew: 
Speed: 
493 kts
Altitude: 
40,008 ft
Stage Length: 
988.6 nm
Block Time: 
2.5 hrs
Flight Time: 
2.3 hrs
Fuel Used: 
29,457 lb
Cleared Route: KBOS BLZZR BAF BIGGO TRIBS BASYE DBABE BWZ PARKE TOWIN KAYNE HOUTN LRP SAAME FLIRT HYPER MRB EYTEE COLNS PERKS HVQ SPAYD YOCKY UNCKL RYANS BWG KMEM
TRACK DATA
50,000 ft 1,000 kts
AIRCRAFT INFO AND CUMULATIVE STATS
Aircraft Type: 
B77LF
Registration: 
SELCAL: 
MSN/LN: 
66255 / 1655
Total Flights: 
9
Total Block Time: 
50.2 hrs
Total Flight Time: 
47.8 hrs
Total Fuel Used: 
465,945 lb
DATALINK LOG | Newest first | Current as of: 2022-11-26 09:24:27
LABEL SEQUENCE CONTENT Dn/Up
QD300814:27 17.7▼ Dn
QC230114:19▼ Dn
2U3720KMEM 101322Z 18006KT 10SM SCT022 SCT036 24/20 A3015 RMK AO2 T02440200▲ Up
2S3720KMEM▼ Dn
QB025111:59▼ Dn
QA534211:51 47.4▼ Dn
2U4435KBOS 101054Z 03016KT 10SM FEW065 FEW250 10/01 A3044 RMK AO2 SLP306 T01000011▲ Up
2U4435KMEM 101135Z 17010KT 10SM BKN022 22/18 A3012 RMK AO2 T02220183▲ Up
2S4434KBOS KMEM▼ Dn
A34334CLEARED TO KMEM VIA BLZZR5 BLZZR BAF Q406 BWZ J6 HVQ Q68 BWG BLUZZ3. SQUAWK 6130.▲ Up
Q04232[LINK ACK]▲ Up
Q04232[LINK TEST]▼ Dn


AIRCRAFT HISTORY
FLIGHT DATE FLIGHT NO. ORIGIN DESTINATION CLEARED ROUTE BLOCK TIME FLIGHT TIME FUEL USED PILOT
2022-09-08FDX5815RJBB ZBAA RJBB MAIKO WENDY SHION SOUJA YAKMO STAGE SAPRA BULGA KPO ELAPI CUN BIGOB BASEM ENSAL GUKDO KAKSO KALMA SEL GOGET NOPIK BINIL ANSIM NOGON OLBIM AGAVO IKEKA SEBLI WEH FZ TEKAM HCH DOVIV VIDEL TEMAD DUMAP ZBAA3 hrs2.8 hrs32,279 lbAllan Burek
2022-05-22FDX5193KMEM RJBB KMEM FOXOM BVO HLC CZI KU90S DORSE YXC YYD LVD LAIRE REMBY NODLE NICHO NOSHO NEONN NANZA NOLTI NAYLD NULUK NANDY NATES NIKLL NYMPH NUZAN NRKEY NIPPI NOGAL NUBDA NANNO NODAN ASTER SDE ELDAK GTC TERAD HAKBA GORYU IKUJI URUSI IMIZU OYABE KMC TRE KIJYY SAEKI ALISA RJBB13.8 hrs13.6 hrs209,917 lbAllan Burek
2022-05-10FDX9845KBOS KMEM KBOS BLZZR BAF BIGGO TRIBS BASYE DBABE BWZ PARKE TOWIN KAYNE HOUTN LRP SAAME FLIRT HYPER MRB EYTEE COLNS PERKS HVQ SPAYD YOCKY UNCKL RYANS BWG KMEM2.5 hrs2.3 hrs29,457 lbAllan Burek
2022-01-30FDX130KMEM KBOS KMEM SLONN LYZZI CRSON HUMMS PXV CREEP SEELA KLYNE DUTSH WWSHR DORET JHW WAYLA VIEEW TYROD MEMMS LOXXE PONCT KBOS2.8 hrs2.4 hrs42,489 lbJohn Binner
2022-01-06FDX9894KDEN KMEM KDEN DUUZE MORRR RZC KMEM1.8 hrs1.6 hrs19,928 lbAllan Burek
2021-11-13FDX519KMEM KDEN KMEM STVVV ZUMIT FOXOM RZC GCK KIISS DYLLN WAIYN LYNKN CLASH EVRLY JURKY ROOTZ RPIDS RDDVL CLFFF MERYN RW16R2.4 hrs2.1 hrs37,787 lbChemtrails
2021-10-14FDX78VHHH KMEM PORPA TD OCEAN AROXA ANPOG JIBEI TIA22 BYWAY BERBA MIKES LESKA KOUKI TENSO NORAN D080M PUTER 42E50 PUGAL 48E60 POWAL PLADO SYA CURVS RIZON 52N60 51N50 50N40 PRETY SEFIX JAKSN YALLO BOFZA OTAYI OCETE TRUNK KK57C ZULID RIVTE HILTY WHOLL HOOOG BRBBQ JAMLA17.8 hrs17.4 hrs0 lbAlex K.
2021-04-19FDX419RKSI VHHH RKSI BOPTA MOXID BEDES ELPOS MANGI DALSU DOTOL KIDOS REMOS PANSI DOMKO PONIK IKEDO KANKA BONSO MUGUS SUBTA SALMI DUBAN BERBA FITCH BESTO COPRA BAKER APU PIDGY HLG SWORD MKG KADLO ANPOG ELATO MAGOG ENPET FISHA ABBEY VHHH3.3 hrs3 hrs52,144 lbKevin Hall
2021-03-12FDX5926ZGGG RKSI ZGGG LMN XEBUL VAVSO EGEDA PLT SAGON NF XUVGI SHR TUPGA ELNEX TOL KAKIS NXD LURMA OLGAP JTN NINAS LASAN BONGI BOLEX TONIX LAMEN SADLI PONIK NIRAT SAMLO SOSDO CJU LOSNI GUKSU KAMIT SAMUL MAKSA ATASO PEBRI GUNKU OLMEN RKSI2.8 hrs2.6 hrs41,944 lbAllan Burek